sensor_id;sensor_type;location;lat;lon;timestamp;P1;durP1;ratioP1;P2;durP2;ratioP2
16665;SDS011;8446;50.998;6.250;2023-04-07T00:01:33;10.40;;;7.20;;
16665;SDS011;8446;50.998;6.250;2023-04-07T00:04:01;10.97;;;8.33;;
16665;SDS011;8446;50.998;6.250;2023-04-07T00:06:28;16.20;;;8.50;;
16665;SDS011;8446;50.998;6.250;2023-04-07T00:08:54;18.57;;;9.97;;
16665;SDS011;8446;50.998;6.250;2023-04-07T00:11:21;19.07;;;9.07;;
16665;SDS011;8446;50.998;6.250;2023-04-07T00:13:49;18.23;;;9.80;;
16665;SDS011;8446;50.998;6.250;2023-04-07T00:16:16;17.20;;;9.90;;
16665;SDS011;8446;50.998;6.250;2023-04-07T00:18:43;16.37;;;9.57;;
16665;SDS011;8446;50.998;6.250;2023-04-07T00:21:10;21.13;;;9.90;;
16665;SDS011;8446;50.998;6.250;2023-04-07T00:23:37;18.00;;;10.03;;
16665;SDS011;8446;50.998;6.250;2023-04-07T00:26:03;19.97;;;9.90;;
16665;SDS011;8446;50.998;6.250;2023-04-07T00:28:30;18.60;;;9.50;;
16665;SDS011;8446;50.998;6.250;2023-04-07T00:30:59;19.63;;;10.50;;
16665;SDS011;8446;50.998;6.250;2023-04-07T00:33:26;13.43;;;8.50;;
16665;SDS011;8446;50.998;6.250;2023-04-07T00:35:53;17.30;;;8.37;;
16665;SDS011;8446;50.998;6.250;2023-04-07T00:38:21;21.83;;;9.67;;
16665;SDS011;8446;50.998;6.250;2023-04-07T00:40:49;18.27;;;9.00;;
16665;SDS011;8446;50.998;6.250;2023-04-07T00:43:16;19.10;;;8.57;;
16665;SDS011;8446;50.998;6.250;2023-04-07T00:45:43;18.50;;;9.00;;
16665;SDS011;8446;50.998;6.250;2023-04-07T00:48:12;18.60;;;9.53;;
16665;SDS011;8446;50.998;6.250;2023-04-07T00:50:39;22.30;;;10.47;;
16665;SDS011;8446;50.998;6.250;2023-04-07T00:53:06;23.60;;;8.47;;
16665;SDS011;8446;50.998;6.250;2023-04-07T00:55:34;17.27;;;9.53;;
16665;SDS011;8446;50.998;6.250;2023-04-07T00:58:01;28.03;;;11.47;;
16665;SDS011;8446;50.998;6.250;2023-04-07T01:00:29;29.20;;;10.90;;
16665;SDS011;8446;50.998;6.250;2023-04-07T01:02:57;24.33;;;11.20;;
16665;SDS011;8446;50.998;6.250;2023-04-07T01:05:29;20.90;;;9.63;;
16665;SDS011;8446;50.998;6.250;2023-04-07T01:07:59;26.03;;;10.93;;
16665;SDS011;8446;50.998;6.250;2023-04-07T01:10:32;22.43;;;9.93;;
16665;SDS011;8446;50.998;6.250;2023-04-07T01:13:09;23.30;;;11.20;;
16665;SDS011;8446;50.998;6.250;2023-04-07T01:15:42;30.37;;;11.57;;
16665;SDS011;8446;50.998;6.250;2023-04-07T01:18:12;28.90;;;11.70;;
16665;SDS011;8446;50.998;6.250;2023-04-07T01:20:42;23.60;;;13.93;;
16665;SDS011;8446;50.998;6.250;2023-04-07T01:23:12;27.07;;;11.37;;
16665;SDS011;8446;50.998;6.250;2023-04-07T01:25:53;23.87;;;12.00;;
16665;SDS011;8446;50.998;6.250;2023-04-07T01:31:26;24.60;;;12.30;;
16665;SDS011;8446;50.998;6.250;2023-04-07T01:33:55;31.20;;;13.73;;
16665;SDS011;8446;50.998;6.250;2023-04-07T01:36:23;36.20;;;13.97;;
16665;SDS011;8446;50.998;6.250;2023-04-07T01:38:52;30.67;;;12.57;;
16665;SDS011;8446;50.998;6.250;2023-04-07T01:41:19;26.70;;;11.87;;
16665;SDS011;8446;50.998;6.250;2023-04-07T01:43:47;20.57;;;10.37;;
16665;SDS011;8446;50.998;6.250;2023-04-07T01:46:14;38.77;;;14.60;;
16665;SDS011;8446;50.998;6.250;2023-04-07T01:48:43;36.73;;;13.33;;
16665;SDS011;8446;50.998;6.250;2023-04-07T01:51:10;33.43;;;14.17;;
16665;SDS011;8446;50.998;6.250;2023-04-07T01:53:41;27.67;;;14.77;;
16665;SDS011;8446;50.998;6.250;2023-04-07T01:56:08;30.53;;;14.97;;
16665;SDS011;8446;50.998;6.250;2023-04-07T01:58:36;38.83;;;15.87;;
16665;SDS011;8446;50.998;6.250;2023-04-07T02:01:03;28.97;;;15.20;;
16665;SDS011;8446;50.998;6.250;2023-04-07T02:03:30;35.17;;;14.87;;
16665;SDS011;8446;50.998;6.250;2023-04-07T02:06:03;32.80;;;13.07;;
16665;SDS011;8446;50.998;6.250;2023-04-07T02:08:31;30.07;;;14.97;;
16665;SDS011;8446;50.998;6.250;2023-04-07T02:10:59;41.70;;;17.30;;
16665;SDS011;8446;50.998;6.250;2023-04-07T02:13:27;37.57;;;15.30;;
16665;SDS011;8446;50.998;6.250;2023-04-07T02:15:56;38.50;;;15.80;;
16665;SDS011;8446;50.998;6.250;2023-04-07T02:18:23;31.67;;;13.83;;
16665;SDS011;8446;50.998;6.250;2023-04-07T02:20:52;30.97;;;13.57;;
16665;SDS011;8446;50.998;6.250;2023-04-07T02:23:21;32.20;;;13.50;;
16665;SDS011;8446;50.998;6.250;2023-04-07T02:25:48;39.20;;;13.83;;
16665;SDS011;8446;50.998;6.250;2023-04-07T02:28:16;33.83;;;12.97;;
16665;SDS011;8446;50.998;6.250;2023-04-07T02:30:43;34.27;;;14.80;;
16665;SDS011;8446;50.998;6.250;2023-04-07T02:33:10;33.43;;;13.80;;
16665;SDS011;8446;50.998;6.250;2023-04-07T02:35:37;38.43;;;15.17;;
16665;SDS011;8446;50.998;6.250;2023-04-07T02:38:04;35.80;;;16.37;;
16665;SDS011;8446;50.998;6.250;2023-04-07T02:40:33;38.73;;;16.37;;
16665;SDS011;8446;50.998;6.250;2023-04-07T02:43:01;36.37;;;14.87;;
16665;SDS011;8446;50.998;6.250;2023-04-07T02:45:29;37.97;;;14.30;;
16665;SDS011;8446;50.998;6.250;2023-04-07T02:47:56;35.80;;;15.00;;
16665;SDS011;8446;50.998;6.250;2023-04-07T02:50:23;41.80;;;16.93;;
16665;SDS011;8446;50.998;6.250;2023-04-07T02:52:51;47.60;;;16.70;;
16665;SDS011;8446;50.998;6.250;2023-04-07T02:55:18;37.63;;;15.40;;
16665;SDS011;8446;50.998;6.250;2023-04-07T02:57:46;40.30;;;18.10;;
16665;SDS011;8446;50.998;6.250;2023-04-07T03:00:14;38.17;;;16.00;;
16665;SDS011;8446;50.998;6.250;2023-04-07T03:02:41;36.53;;;16.13;;
16665;SDS011;8446;50.998;6.250;2023-04-07T03:05:08;39.33;;;15.80;;
16665;SDS011;8446;50.998;6.250;2023-04-07T03:07:35;35.57;;;16.47;;
16665;SDS011;8446;50.998;6.250;2023-04-07T03:10:02;47.37;;;17.60;;
16665;SDS011;8446;50.998;6.250;2023-04-07T03:12:30;36.60;;;16.37;;
16665;SDS011;8446;50.998;6.250;2023-04-07T03:14:58;40.30;;;16.50;;
16665;SDS011;8446;50.998;6.250;2023-04-07T03:17:25;32.30;;;15.73;;
16665;SDS011;8446;50.998;6.250;2023-04-07T03:19:52;37.33;;;15.70;;
16665;SDS011;8446;50.998;6.250;2023-04-07T03:22:18;42.40;;;16.57;;
16665;SDS011;8446;50.998;6.250;2023-04-07T03:24:45;33.87;;;16.40;;
16665;SDS011;8446;50.998;6.250;2023-04-07T03:27:12;45.00;;;15.87;;
16665;SDS011;8446;50.998;6.250;2023-04-07T03:29:39;42.67;;;17.67;;
16665;SDS011;8446;50.998;6.250;2023-04-07T03:32:07;40.63;;;17.50;;
16665;SDS011;8446;50.998;6.250;2023-04-07T03:34:33;44.50;;;17.67;;
16665;SDS011;8446;50.998;6.250;2023-04-07T03:37:00;45.17;;;16.77;;
16665;SDS011;8446;50.998;6.250;2023-04-07T03:39:27;34.92;;;15.75;;
16665;SDS011;8446;50.998;6.250;2023-04-07T03:41:54;38.92;;;16.65;;
16665;SDS011;8446;50.998;6.250;2023-04-07T03:44:21;35.92;;;15.50;;
16665;SDS011;8446;50.998;6.250;2023-04-07T03:46:48;41.30;;;16.57;;
16665;SDS011;8446;50.998;6.250;2023-04-07T03:49:16;48.08;;;17.90;;
16665;SDS011;8446;50.998;6.250;2023-04-07T03:51:43;43.00;;;16.40;;
16665;SDS011;8446;50.998;6.250;2023-04-07T03:54:10;34.45;;;16.50;;
16665;SDS011;8446;50.998;6.250;2023-04-07T03:56:36;50.97;;;17.60;;
16665;SDS011;8446;50.998;6.250;2023-04-07T03:59:03;39.05;;;17.67;;
16665;SDS011;8446;50.998;6.250;2023-04-07T04:01:30;47.90;;;17.53;;
16665;SDS011;8446;50.998;6.250;2023-04-07T04:03:57;54.27;;;18.00;;
16665;SDS011;8446;50.998;6.250;2023-04-07T04:06:26;45.33;;;17.20;;
16665;SDS011;8446;50.998;6.250;2023-04-07T04:08:52;50.88;;;17.85;;
16665;SDS011;8446;50.998;6.250;2023-04-07T04:11:19;36.10;;;16.30;;
16665;SDS011;8446;50.998;6.250;2023-04-07T04:13:47;43.87;;;18.00;;
16665;SDS011;8446;50.998;6.250;2023-04-07T04:16:13;55.93;;;17.33;;
16665;SDS011;8446;50.998;6.250;2023-04-07T04:18:40;40.87;;;16.10;;
16665;SDS011;8446;50.998;6.250;2023-04-07T04:21:07;42.13;;;16.70;;
16665;SDS011;8446;50.998;6.250;2023-04-07T04:23:35;34.90;;;14.90;;
16665;SDS011;8446;50.998;6.250;2023-04-07T04:26:02;42.03;;;15.83;;
16665;SDS011;8446;50.998;6.250;2023-04-07T04:28:29;30.20;;;13.30;;
16665;SDS011;8446;50.998;6.250;2023-04-07T04:30:56;29.33;;;14.33;;
16665;SDS011;8446;50.998;6.250;2023-04-07T04:33:23;41.67;;;15.60;;
16665;SDS011;8446;50.998;6.250;2023-04-07T04:35:50;31.33;;;15.37;;
16665;SDS011;8446;50.998;6.250;2023-04-07T04:38:17;26.38;;;13.75;;
16665;SDS011;8446;50.998;6.250;2023-04-07T04:40:45;32.72;;;12.20;;
16665;SDS011;8446;50.998;6.250;2023-04-07T04:43:12;25.55;;;11.82;;
16665;SDS011;8446;50.998;6.250;2023-04-07T04:45:38;18.33;;;10.80;;
16665;SDS011;8446;50.998;6.250;2023-04-07T04:48:05;27.20;;;10.95;;
16665;SDS011;8446;50.998;6.250;2023-04-07T04:50:33;27.58;;;11.68;;
16665;SDS011;8446;50.998;6.250;2023-04-07T04:53:00;30.80;;;12.40;;
16665;SDS011;8446;50.998;6.250;2023-04-07T04:55:27;30.67;;;12.80;;
16665;SDS011;8446;50.998;6.250;2023-04-07T04:57:55;26.10;;;11.18;;
16665;SDS011;8446;50.998;6.250;2023-04-07T05:00:22;24.40;;;11.90;;
16665;SDS011;8446;50.998;6.250;2023-04-07T05:02:49;26.48;;;11.32;;
16665;SDS011;8446;50.998;6.250;2023-04-07T05:05:16;20.80;;;10.60;;
16665;SDS011;8446;50.998;6.250;2023-04-07T05:07:43;25.60;;;11.75;;
16665;SDS011;8446;50.998;6.250;2023-04-07T05:10:10;27.42;;;11.73;;
16665;SDS011;8446;50.998;6.250;2023-04-07T05:12:36;26.25;;;11.35;;
16665;SDS011;8446;50.998;6.250;2023-04-07T05:15:05;28.42;;;12.23;;
16665;SDS011;8446;50.998;6.250;2023-04-07T05:17:33;29.87;;;14.00;;
16665;SDS011;8446;50.998;6.250;2023-04-07T05:19:59;26.50;;;13.07;;
16665;SDS011;8446;50.998;6.250;2023-04-07T05:22:26;28.80;;;12.63;;
16665;SDS011;8446;50.998;6.250;2023-04-07T05:24:53;29.42;;;12.10;;
16665;SDS011;8446;50.998;6.250;2023-04-07T05:27:20;28.02;;;13.65;;
16665;SDS011;8446;50.998;6.250;2023-04-07T05:29:47;26.30;;;12.83;;
16665;SDS011;8446;50.998;6.250;2023-04-07T05:32:15;27.38;;;10.45;;
16665;SDS011;8446;50.998;6.250;2023-04-07T05:34:41;19.40;;;10.75;;
16665;SDS011;8446;50.998;6.250;2023-04-07T05:37:08;25.48;;;10.65;;
16665;SDS011;8446;50.998;6.250;2023-04-07T05:39:35;22.05;;;10.43;;
16665;SDS011;8446;50.998;6.250;2023-04-07T05:42:02;28.95;;;10.40;;
16665;SDS011;8446;50.998;6.250;2023-04-07T05:44:29;30.63;;;10.07;;
16665;SDS011;8446;50.998;6.250;2023-04-07T05:46:55;21.33;;;8.65;;
16665;SDS011;8446;50.998;6.250;2023-04-07T05:49:23;16.98;;;8.15;;
16665;SDS011;8446;50.998;6.250;2023-04-07T05:51:50;21.20;;;8.18;;
16665;SDS011;8446;50.998;6.250;2023-04-07T05:54:17;19.45;;;8.35;;
16665;SDS011;8446;50.998;6.250;2023-04-07T05:56:44;17.42;;;7.93;;
16665;SDS011;8446;50.998;6.250;2023-04-07T05:59:10;17.17;;;7.50;;
16665;SDS011;8446;50.998;6.250;2023-04-07T06:01:37;14.23;;;7.93;;
16665;SDS011;8446;50.998;6.250;2023-04-07T06:04:04;17.90;;;8.10;;
16665;SDS011;8446;50.998;6.250;2023-04-07T06:06:32;19.98;;;8.40;;
16665;SDS011;8446;50.998;6.250;2023-04-07T06:08:59;15.13;;;6.87;;
16665;SDS011;8446;50.998;6.250;2023-04-07T06:11:25;20.85;;;7.30;;
16665;SDS011;8446;50.998;6.250;2023-04-07T06:13:52;13.48;;;6.60;;
16665;SDS011;8446;50.998;6.250;2023-04-07T06:16:19;16.13;;;7.80;;
16665;SDS011;8446;50.998;6.250;2023-04-07T06:18:46;14.48;;;6.55;;
16665;SDS011;8446;50.998;6.250;2023-04-07T06:21:13;16.38;;;8.40;;
16665;SDS011;8446;50.998;6.250;2023-04-07T06:23:41;16.85;;;6.50;;
16665;SDS011;8446;50.998;6.250;2023-04-07T06:26:09;16.67;;;7.03;;
16665;SDS011;8446;50.998;6.250;2023-04-07T06:28:36;15.90;;;6.40;;
16665;SDS011;8446;50.998;6.250;2023-04-07T06:31:03;19.53;;;7.83;;
16665;SDS011;8446;50.998;6.250;2023-04-07T06:33:29;13.07;;;6.85;;
16665;SDS011;8446;50.998;6.250;2023-04-07T06:35:56;32.38;;;7.25;;
16665;SDS011;8446;50.998;6.250;2023-04-07T06:38:23;13.30;;;6.32;;
16665;SDS011;8446;50.998;6.250;2023-04-07T06:40:51;17.70;;;6.40;;
16665;SDS011;8446;50.998;6.250;2023-04-07T06:43:18;25.33;;;6.67;;
16665;SDS011;8446;50.998;6.250;2023-04-07T06:45:45;13.90;;;6.27;;
16665;SDS011;8446;50.998;6.250;2023-04-07T06:48:11;17.83;;;6.30;;
16665;SDS011;8446;50.998;6.250;2023-04-07T06:50:38;16.70;;;6.13;;
16665;SDS011;8446;50.998;6.250;2023-04-07T06:53:05;12.15;;;6.88;;
16665;SDS011;8446;50.998;6.250;2023-04-07T06:55:31;16.00;;;6.90;;
16665;SDS011;8446;50.998;6.250;2023-04-07T06:57:59;26.73;;;7.22;;
16665;SDS011;8446;50.998;6.250;2023-04-07T07:00:26;16.97;;;7.43;;
16665;SDS011;8446;50.998;6.250;2023-04-07T07:05:30;19.33;;;7.53;;
16665;SDS011;8446;50.998;6.250;2023-04-07T07:07:58;13.10;;;6.15;;
16665;SDS011;8446;50.998;6.250;2023-04-07T07:10:25;15.87;;;6.80;;
16665;SDS011;8446;50.998;6.250;2023-04-07T07:12:51;12.50;;;6.40;;
16665;SDS011;8446;50.998;6.250;2023-04-07T07:15:20;22.13;;;6.90;;
16665;SDS011;8446;50.998;6.250;2023-04-07T07:17:46;19.23;;;7.57;;
16665;SDS011;8446;50.998;6.250;2023-04-07T07:20:13;12.20;;;6.77;;
16665;SDS011;8446;50.998;6.250;2023-04-07T07:22:40;16.77;;;7.23;;
16665;SDS011;8446;50.998;6.250;2023-04-07T07:25:07;21.70;;;7.10;;
16665;SDS011;8446;50.998;6.250;2023-04-07T07:27:34;16.63;;;6.90;;
16665;SDS011;8446;50.998;6.250;2023-04-07T07:30:01;15.80;;;7.47;;
16665;SDS011;8446;50.998;6.250;2023-04-07T07:32:29;22.40;;;8.60;;
16665;SDS011;8446;50.998;6.250;2023-04-07T07:34:56;20.60;;;7.63;;
16665;SDS011;8446;50.998;6.250;2023-04-07T07:37:22;28.67;;;7.53;;
16665;SDS011;8446;50.998;6.250;2023-04-07T07:39:49;23.30;;;9.07;;
16665;SDS011;8446;50.998;6.250;2023-04-07T07:42:16;22.83;;;8.73;;
16665;SDS011;8446;50.998;6.250;2023-04-07T07:44:43;26.70;;;10.23;;
16665;SDS011;8446;50.998;6.250;2023-04-07T07:47:10;22.77;;;9.20;;
16665;SDS011;8446;50.998;6.250;2023-04-07T07:49:38;26.60;;;10.03;;
16665;SDS011;8446;50.998;6.250;2023-04-07T07:52:05;25.00;;;9.80;;
16665;SDS011;8446;50.998;6.250;2023-04-07T07:54:32;28.27;;;10.00;;
16665;SDS011;8446;50.998;6.250;2023-04-07T07:56:59;23.37;;;9.93;;
16665;SDS011;8446;50.998;6.250;2023-04-07T07:59:27;17.57;;;9.50;;
16665;SDS011;8446;50.998;6.250;2023-04-07T08:01:53;25.10;;;10.13;;
16665;SDS011;8446;50.998;6.250;2023-04-07T08:04:20;24.57;;;10.70;;
16665;SDS011;8446;50.998;6.250;2023-04-07T08:06:49;24.80;;;10.17;;
16665;SDS011;8446;50.998;6.250;2023-04-07T08:09:16;18.67;;;9.43;;
16665;SDS011;8446;50.998;6.250;2023-04-07T08:11:43;29.93;;;10.27;;
16665;SDS011;8446;50.998;6.250;2023-04-07T08:14:10;24.37;;;11.50;;
16665;SDS011;8446;50.998;6.250;2023-04-07T08:16:36;25.57;;;10.87;;
16665;SDS011;8446;50.998;6.250;2023-04-07T08:19:03;29.97;;;12.07;;
16665;SDS011;8446;50.998;6.250;2023-04-07T08:21:30;32.80;;;13.10;;
16665;SDS011;8446;50.998;6.250;2023-04-07T08:23:58;31.20;;;11.20;;
16665;SDS011;8446;50.998;6.250;2023-04-07T08:26:25;25.77;;;12.33;;
16665;SDS011;8446;50.998;6.250;2023-04-07T08:28:52;32.60;;;13.20;;
16665;SDS011;8446;50.998;6.250;2023-04-07T08:31:20;32.90;;;12.53;;
16665;SDS011;8446;50.998;6.250;2023-04-07T08:33:47;41.63;;;13.50;;
16665;SDS011;8446;50.998;6.250;2023-04-07T08:36:18;32.80;;;13.70;;
16665;SDS011;8446;50.998;6.250;2023-04-07T08:38:44;36.77;;;14.10;;
16665;SDS011;8446;50.998;6.250;2023-04-07T08:41:15;34.50;;;14.40;;
16665;SDS011;8446;50.998;6.250;2023-04-07T08:43:45;34.10;;;13.77;;
16665;SDS011;8446;50.998;6.250;2023-04-07T08:46:13;28.83;;;13.53;;
16665;SDS011;8446;50.998;6.250;2023-04-07T08:48:43;44.90;;;12.03;;
16665;SDS011;8446;50.998;6.250;2023-04-07T08:51:11;41.83;;;15.20;;
16665;SDS011;8446;50.998;6.250;2023-04-07T08:53:40;32.07;;;13.17;;
16665;SDS011;8446;50.998;6.250;2023-04-07T08:56:15;34.53;;;11.37;;
16665;SDS011;8446;50.998;6.250;2023-04-07T08:58:42;30.77;;;11.13;;
16665;SDS011;8446;50.998;6.250;2023-04-07T09:01:10;31.93;;;13.13;;
16665;SDS011;8446;50.998;6.250;2023-04-07T09:03:38;29.00;;;12.90;;
16665;SDS011;8446;50.998;6.250;2023-04-07T09:06:05;28.17;;;11.90;;
16665;SDS011;8446;50.998;6.250;2023-04-07T09:08:32;28.40;;;11.33;;
16665;SDS011;8446;50.998;6.250;2023-04-07T09:10:59;22.43;;;10.50;;
16665;SDS011;8446;50.998;6.250;2023-04-07T09:13:27;30.43;;;13.03;;
16665;SDS011;8446;50.998;6.250;2023-04-07T09:15:55;36.10;;;11.80;;
16665;SDS011;8446;50.998;6.250;2023-04-07T09:18:22;21.57;;;9.47;;
16665;SDS011;8446;50.998;6.250;2023-04-07T09:20:56;21.70;;;10.80;;
16665;SDS011;8446;50.998;6.250;2023-04-07T09:23:26;19.43;;;9.73;;
16665;SDS011;8446;50.998;6.250;2023-04-07T09:25:54;23.53;;;11.43;;
16665;SDS011;8446;50.998;6.250;2023-04-07T09:28:23;31.33;;;13.17;;
16665;SDS011;8446;50.998;6.250;2023-04-07T09:30:55;25.43;;;10.37;;
16665;SDS011;8446;50.998;6.250;2023-04-07T09:33:25;33.70;;;10.43;;
16665;SDS011;8446;50.998;6.250;2023-04-07T09:35:53;24.63;;;9.80;;
16665;SDS011;8446;50.998;6.250;2023-04-07T09:38:20;23.03;;;9.50;;
16665;SDS011;8446;50.998;6.250;2023-04-07T09:40:47;29.40;;;10.63;;
16665;SDS011;8446;50.998;6.250;2023-04-07T09:43:14;23.90;;;10.70;;
16665;SDS011;8446;50.998;6.250;2023-04-07T09:45:41;27.93;;;11.20;;
16665;SDS011;8446;50.998;6.250;2023-04-07T09:48:17;21.03;;;9.50;;
16665;SDS011;8446;50.998;6.250;2023-04-07T09:50:45;20.53;;;10.30;;
16665;SDS011;8446;50.998;6.250;2023-04-07T09:53:15;23.30;;;10.23;;
16665;SDS011;8446;50.998;6.250;2023-04-07T09:55:43;21.60;;;10.57;;
16665;SDS011;8446;50.998;6.250;2023-04-07T09:58:11;14.80;;;8.00;;
16665;SDS011;8446;50.998;6.250;2023-04-07T10:00:38;19.40;;;8.80;;
16665;SDS011;8446;50.998;6.250;2023-04-07T10:03:06;19.87;;;7.77;;
16665;SDS011;8446;50.998;6.250;2023-04-07T10:05:35;19.90;;;8.73;;
16665;SDS011;8446;50.998;6.250;2023-04-07T10:08:04;17.97;;;9.77;;
16665;SDS011;8446;50.998;6.250;2023-04-07T10:10:31;23.50;;;9.83;;
16665;SDS011;8446;50.998;6.250;2023-04-07T10:13:00;17.90;;;8.43;;
16665;SDS011;8446;50.998;6.250;2023-04-07T10:15:30;16.50;;;8.83;;
16665;SDS011;8446;50.998;6.250;2023-04-07T10:17:57;21.43;;;9.90;;
16665;SDS011;8446;50.998;6.250;2023-04-07T10:20:24;22.97;;;10.70;;
16665;SDS011;8446;50.998;6.250;2023-04-07T10:22:55;25.70;;;11.20;;
16665;SDS011;8446;50.998;6.250;2023-04-07T10:25:34;13.73;;;8.73;;
16665;SDS011;8446;50.998;6.250;2023-04-07T10:28:03;15.23;;;8.90;;
16665;SDS011;8446;50.998;6.250;2023-04-07T10:30:33;17.57;;;8.53;;
16665;SDS011;8446;50.998;6.250;2023-04-07T10:33:00;16.03;;;8.57;;
16665;SDS011;8446;50.998;6.250;2023-04-07T10:35:27;16.90;;;8.83;;
16665;SDS011;8446;50.998;6.250;2023-04-07T10:38:16;16.80;;;9.07;;
16665;SDS011;8446;50.998;6.250;2023-04-07T10:40:43;25.40;;;9.43;;
16665;SDS011;8446;50.998;6.250;2023-04-07T10:43:10;20.07;;;8.53;;
16665;SDS011;8446;50.998;6.250;2023-04-07T10:45:53;14.47;;;8.93;;
16665;SDS011;8446;50.998;6.250;2023-04-07T10:48:23;20.27;;;9.53;;
16665;SDS011;8446;50.998;6.250;2023-04-07T10:51:11;17.47;;;9.67;;
16665;SDS011;8446;50.998;6.250;2023-04-07T10:59:32;22.40;;;9.77;;
16665;SDS011;8446;50.998;6.250;2023-04-07T11:04:57;20.37;;;9.30;;
16665;SDS011;8446;50.998;6.250;2023-04-07T11:10:14;16.60;;;8.53;;
16665;SDS011;8446;50.998;6.250;2023-04-07T11:12:44;21.70;;;9.53;;
16665;SDS011;8446;50.998;6.250;2023-04-07T11:15:28;18.23;;;9.40;;
16665;SDS011;8446;50.998;6.250;2023-04-07T11:18:11;16.57;;;8.90;;
16665;SDS011;8446;50.998;6.250;2023-04-07T11:20:41;24.50;;;9.53;;
16665;SDS011;8446;50.998;6.250;2023-04-07T11:23:09;16.10;;;8.20;;
16665;SDS011;8446;50.998;6.250;2023-04-07T11:25:36;18.50;;;7.87;;
16665;SDS011;8446;50.998;6.250;2023-04-07T11:28:04;21.20;;;9.80;;
16665;SDS011;8446;50.998;6.250;2023-04-07T11:30:31;17.93;;;8.60;;
16665;SDS011;8446;50.998;6.250;2023-04-07T11:32:58;20.03;;;9.00;;
16665;SDS011;8446;50.998;6.250;2023-04-07T11:35:25;17.63;;;8.30;;
16665;SDS011;8446;50.998;6.250;2023-04-07T11:37:56;16.10;;;7.17;;
16665;SDS011;8446;50.998;6.250;2023-04-07T11:40:30;12.83;;;7.00;;
16665;SDS011;8446;50.998;6.250;2023-04-07T11:42:58;11.93;;;7.40;;
16665;SDS011;8446;50.998;6.250;2023-04-07T11:45:27;10.77;;;5.87;;
16665;SDS011;8446;50.998;6.250;2023-04-07T11:47:54;9.73;;;5.70;;
16665;SDS011;8446;50.998;6.250;2023-04-07T11:50:40;11.10;;;6.13;;
16665;SDS011;8446;50.998;6.250;2023-04-07T11:53:07;9.33;;;5.90;;
16665;SDS011;8446;50.998;6.250;2023-04-07T11:55:35;12.33;;;6.20;;
16665;SDS011;8446;50.998;6.250;2023-04-07T11:58:05;16.57;;;6.80;;
16665;SDS011;8446;50.998;6.250;2023-04-07T12:00:35;11.53;;;6.70;;
16665;SDS011;8446;50.998;6.250;2023-04-07T12:03:09;13.50;;;7.17;;
16665;SDS011;8446;50.998;6.250;2023-04-07T12:05:41;13.63;;;7.87;;
16665;SDS011;8446;50.998;6.250;2023-04-07T12:08:08;11.20;;;7.40;;
16665;SDS011;8446;50.998;6.250;2023-04-07T12:10:35;16.07;;;7.43;;
16665;SDS011;8446;50.998;6.250;2023-04-07T12:13:05;12.70;;;7.10;;
16665;SDS011;8446;50.998;6.250;2023-04-07T12:15:32;12.73;;;7.57;;
16665;SDS011;8446;50.998;6.250;2023-04-07T12:18:00;16.40;;;8.70;;
16665;SDS011;8446;50.998;6.250;2023-04-07T12:20:27;16.60;;;8.17;;
16665;SDS011;8446;50.998;6.250;2023-04-07T12:22:54;14.13;;;7.70;;
16665;SDS011;8446;50.998;6.250;2023-04-07T12:25:21;15.93;;;9.33;;
16665;SDS011;8446;50.998;6.250;2023-04-07T12:27:48;16.47;;;8.97;;
16665;SDS011;8446;50.998;6.250;2023-04-07T12:30:15;18.23;;;9.33;;
16665;SDS011;8446;50.998;6.250;2023-04-07T12:32:41;21.93;;;9.60;;
16665;SDS011;8446;50.998;6.250;2023-04-07T12:35:09;19.83;;;9.37;;
16665;SDS011;8446;50.998;6.250;2023-04-07T12:37:36;23.13;;;10.90;;
16665;SDS011;8446;50.998;6.250;2023-04-07T12:40:03;16.20;;;8.10;;
16665;SDS011;8446;50.998;6.250;2023-04-07T12:42:30;22.80;;;9.80;;
16665;SDS011;8446;50.998;6.250;2023-04-07T12:44:57;20.97;;;10.90;;
16665;SDS011;8446;50.998;6.250;2023-04-07T12:47:24;29.63;;;12.93;;
16665;SDS011;8446;50.998;6.250;2023-04-07T12:49:51;18.57;;;11.60;;
16665;SDS011;8446;50.998;6.250;2023-04-07T12:52:19;23.90;;;11.20;;
16665;SDS011;8446;50.998;6.250;2023-04-07T12:54:46;22.33;;;10.90;;
16665;SDS011;8446;50.998;6.250;2023-04-07T12:57:13;20.80;;;10.33;;
16665;SDS011;8446;50.998;6.250;2023-04-07T12:59:40;22.40;;;10.50;;
16665;SDS011;8446;50.998;6.250;2023-04-07T13:02:06;17.17;;;10.57;;
16665;SDS011;8446;50.998;6.250;2023-04-07T13:04:33;19.80;;;11.93;;
16665;SDS011;8446;50.998;6.250;2023-04-07T13:07:00;21.10;;;11.20;;
16665;SDS011;8446;50.998;6.250;2023-04-07T13:09:29;21.90;;;11.30;;
16665;SDS011;8446;50.998;6.250;2023-04-07T13:11:55;23.10;;;10.70;;
16665;SDS011;8446;50.998;6.250;2023-04-07T13:14:22;19.70;;;11.00;;
16665;SDS011;8446;50.998;6.250;2023-04-07T13:16:51;16.50;;;10.33;;
16665;SDS011;8446;50.998;6.250;2023-04-07T13:19:18;20.63;;;12.37;;
16665;SDS011;8446;50.998;6.250;2023-04-07T13:21:45;29.10;;;11.97;;
16665;SDS011;8446;50.998;6.250;2023-04-07T13:24:11;20.70;;;10.40;;
16665;SDS011;8446;50.998;6.250;2023-04-07T13:26:40;18.33;;;9.80;;
16665;SDS011;8446;50.998;6.250;2023-04-07T13:29:06;21.07;;;8.27;;
16665;SDS011;8446;50.998;6.250;2023-04-07T13:31:33;13.07;;;7.77;;
16665;SDS011;8446;50.998;6.250;2023-04-07T13:34:00;12.40;;;6.77;;
16665;SDS011;8446;50.998;6.250;2023-04-07T13:36:27;15.73;;;8.33;;
16665;SDS011;8446;50.998;6.250;2023-04-07T13:38:54;16.87;;;8.53;;
16665;SDS011;8446;50.998;6.250;2023-04-07T13:41:21;13.63;;;7.70;;
16665;SDS011;8446;50.998;6.250;2023-04-07T13:43:49;12.20;;;6.63;;
16665;SDS011;8446;50.998;6.250;2023-04-07T13:46:16;11.60;;;6.43;;
16665;SDS011;8446;50.998;6.250;2023-04-07T13:48:43;13.40;;;6.60;;
16665;SDS011;8446;50.998;6.250;2023-04-07T13:51:10;20.73;;;6.00;;
16665;SDS011;8446;50.998;6.250;2023-04-07T13:53:37;10.40;;;5.73;;
16665;SDS011;8446;50.998;6.250;2023-04-07T13:56:04;17.83;;;5.67;;
16665;SDS011;8446;50.998;6.250;2023-04-07T13:58:32;8.30;;;6.13;;
16665;SDS011;8446;50.998;6.250;2023-04-07T14:01:00;11.73;;;6.00;;
16665;SDS011;8446;50.998;6.250;2023-04-07T14:03:27;15.13;;;5.50;;
16665;SDS011;8446;50.998;6.250;2023-04-07T14:05:55;13.30;;;5.50;;
16665;SDS011;8446;50.998;6.250;2023-04-07T14:08:24;13.93;;;5.83;;
16665;SDS011;8446;50.998;6.250;2023-04-07T14:10:51;5.67;;;4.33;;
16665;SDS011;8446;50.998;6.250;2023-04-07T14:13:18;12.20;;;5.37;;
16665;SDS011;8446;50.998;6.250;2023-04-07T14:15:46;11.73;;;4.83;;
16665;SDS011;8446;50.998;6.250;2023-04-07T14:18:14;8.87;;;5.20;;
16665;SDS011;8446;50.998;6.250;2023-04-07T14:20:42;6.27;;;4.37;;
16665;SDS011;8446;50.998;6.250;2023-04-07T14:23:08;9.97;;;4.77;;
16665;SDS011;8446;50.998;6.250;2023-04-07T14:25:36;8.10;;;5.50;;
16665;SDS011;8446;50.998;6.250;2023-04-07T14:28:03;11.57;;;5.00;;
16665;SDS011;8446;50.998;6.250;2023-04-07T14:30:29;8.83;;;4.40;;
16665;SDS011;8446;50.998;6.250;2023-04-07T14:32:58;9.97;;;3.83;;
16665;SDS011;8446;50.998;6.250;2023-04-07T14:35:26;10.47;;;4.67;;
16665;SDS011;8446;50.998;6.250;2023-04-07T14:37:53;9.57;;;4.13;;
16665;SDS011;8446;50.998;6.250;2023-04-07T14:40:20;9.03;;;4.60;;
16665;SDS011;8446;50.998;6.250;2023-04-07T14:42:47;17.13;;;6.60;;
16665;SDS011;8446;50.998;6.250;2023-04-07T14:45:14;7.37;;;4.90;;
16665;SDS011;8446;50.998;6.250;2023-04-07T14:47:41;19.57;;;5.40;;
16665;SDS011;8446;50.998;6.250;2023-04-07T14:50:08;10.73;;;5.67;;
16665;SDS011;8446;50.998;6.250;2023-04-07T14:52:38;8.53;;;4.77;;
16665;SDS011;8446;50.998;6.250;2023-04-07T14:55:05;15.27;;;5.37;;
16665;SDS011;8446;50.998;6.250;2023-04-07T14:57:32;13.13;;;5.37;;
16665;SDS011;8446;50.998;6.250;2023-04-07T14:59:59;13.53;;;6.00;;
16665;SDS011;8446;50.998;6.250;2023-04-07T15:02:25;5.07;;;3.53;;